createdAt,value
2022-09-18T00:01:33.790Z,83.75
2022-09-18T00:04:06.908Z,85.03
2022-09-18T00:06:38.440Z,84.88
2022-09-18T00:09:09.015Z,84.25
2022-09-18T00:11:43.248Z,83.93
2022-09-18T00:14:13.204Z,82.90
2022-09-18T00:16:41.175Z,82.80
2022-09-18T00:19:09.509Z,82.68
2022-09-18T00:21:40.085Z,84.25
2022-09-18T00:24:07.652Z,84.65
2022-09-18T00:26:35.787Z,84.57
2022-09-18T00:29:04.380Z,85.93
2022-09-18T00:31:35.167Z,84.35
2022-09-18T00:34:05.897Z,84.20
2022-09-18T00:36:34.267Z,84.38
2022-09-18T00:39:02.938Z,82.93
2022-09-18T00:41:33.044Z,89.80
2022-09-18T00:44:28.463Z,89.80
2022-09-18T00:47:04.189Z,88.93
2022-09-18T00:49:32.291Z,90.97
2022-09-18T00:52:01.916Z,89.60
2022-09-18T00:54:36.819Z,89.72
2022-09-18T00:57:09.302Z,90.03
2022-09-18T00:59:37.973Z,94.23
2022-09-18T01:02:05.529Z,88.80
2022-09-18T01:04:33.580Z,89.88
2022-09-18T01:07:37.847Z,89.28
2022-09-18T01:11:02.614Z,87.70
2022-09-18T01:13:51.712Z,86.85
2022-09-18T01:16:25.411Z,85.13
2022-09-18T01:19:26.107Z,60.95
2022-09-18T01:22:25.943Z,82.10
2022-09-18T01:25:20.048Z,84.63
2022-09-18T01:30:15.257Z,82.85
2022-09-18T01:32:57.698Z,84.07
2022-09-18T01:35:42.003Z,85.45
2022-09-18T01:38:28.183Z,85.05
2022-09-18T01:41:12.330Z,85.20
2022-09-18T01:43:41.011Z,91.40
2022-09-18T01:46:13.614Z,97.57
2022-09-18T01:49:09.499Z,92.40
2022-09-18T01:52:10.161Z,86.15
2022-09-18T01:54:43.883Z,87.13
2022-09-18T01:57:39.685Z,87.45
2022-09-18T02:00:12.604Z,85.07
2022-09-18T02:02:58.494Z,84.63
2022-09-18T02:05:38.015Z,59.08
2022-09-18T02:08:08.262Z,84.05
2022-09-18T02:10:43.083Z,92.50
2022-09-18T02:13:15.177Z,85.72
2022-09-18T02:15:48.018Z,86.75
2022-09-18T02:18:27.045Z,87.18
2022-09-18T02:20:56.731Z,84.85
2022-09-18T02:23:25.878Z,83.57
2022-09-18T02:26:01.889Z,84.28
2022-09-18T02:28:32.097Z,84.35
2022-09-18T02:31:01.038Z,83.55
2022-09-18T02:33:30.476Z,83.85
2022-09-18T02:36:26.528Z,83.35
2022-09-18T02:39:03.589Z,85.70
2022-09-18T02:42:14.276Z,85.15
2022-09-18T02:45:02.663Z,84.72
2022-09-18T02:47:51.867Z,85.47
2022-09-18T02:50:38.302Z,86.57
2022-09-18T02:53:27.263Z,84.43
2022-09-18T02:56:05.302Z,86.13
2022-09-18T02:58:45.074Z,89.35
2022-09-18T03:01:14.128Z,87.00
2022-09-18T03:03:42.353Z,90.07
2022-09-18T03:06:12.084Z,85.65
2022-09-18T03:08:40.006Z,87.03
2022-09-18T03:11:07.369Z,87.15
2022-09-18T03:13:35.343Z,88.22
2022-09-18T03:16:04.150Z,88.63
2022-09-18T03:18:31.551Z,88.22
2022-09-18T03:20:59.991Z,87.00
2022-09-18T03:23:27.376Z,86.63
2022-09-18T03:26:04.576Z,85.05
2022-09-18T03:28:34.085Z,85.88
2022-09-18T03:31:01.728Z,84.88
2022-09-18T03:33:31.178Z,84.70
2022-09-18T03:35:58.726Z,87.18
2022-09-18T03:38:27.146Z,85.45
2022-09-18T03:40:55.651Z,84.68
2022-09-18T03:43:23.178Z,85.65
2022-09-18T03:45:50.876Z,90.80
2022-09-18T03:48:19.285Z,84.75
2022-09-18T03:50:50.149Z,86.85
2022-09-18T03:53:18.134Z,83.32
2022-09-18T03:55:52.967Z,83.05
2022-09-18T03:58:38.642Z,86.05
2022-09-18T04:01:21.293Z,83.72
2022-09-18T04:04:09.055Z,83.38
2022-09-18T04:06:48.856Z,81.95
2022-09-18T04:09:36.542Z,82.50
2022-09-18T04:12:04.013Z,85.53
2022-09-18T04:14:31.400Z,83.47
2022-09-18T04:17:00.508Z,83.15
2022-09-18T04:19:28.259Z,83.03
2022-09-18T04:21:57.339Z,85.22
2022-09-18T04:24:24.766Z,81.82
2022-09-18T04:26:52.105Z,83.55
2022-09-18T04:29:22.176Z,82.32
2022-09-18T04:31:51.961Z,83.50
2022-09-18T04:34:21.769Z,84.20
2022-09-18T04:36:49.175Z,81.15
2022-09-18T04:39:16.723Z,83.82
2022-09-18T04:41:46.140Z,82.90
2022-09-18T04:44:14.729Z,82.45
2022-09-18T04:46:43.595Z,81.75
2022-09-18T04:49:11.413Z,82.00
2022-09-18T04:51:39.242Z,82.63
2022-09-18T04:54:06.647Z,84.68
2022-09-18T04:56:37.679Z,59.95
2022-09-18T04:59:05.113Z,83.30
2022-09-18T05:01:35.103Z,81.68
2022-09-18T05:04:08.987Z,82.90
2022-09-18T05:06:59.510Z,83.55
2022-09-18T05:09:27.032Z,82.38
2022-09-18T05:11:55.358Z,83.45
2022-09-18T05:14:24.445Z,83.25
2022-09-18T05:16:56.654Z,82.53
2022-09-18T05:19:44.246Z,82.50
2022-09-18T05:22:21.709Z,85.63
2022-09-18T05:24:51.635Z,82.68
2022-09-18T05:27:20.631Z,83.68
2022-09-18T05:29:50.867Z,84.10
2022-09-18T05:32:22.485Z,83.30
2022-09-18T05:34:51.594Z,86.50
2022-09-18T05:37:19.334Z,89.38
2022-09-18T05:39:51.400Z,89.82
2022-09-18T05:42:18.879Z,105.85
2022-09-18T05:44:46.626Z,126.38
2022-09-18T05:47:19.311Z,116.65
2022-09-18T05:49:46.763Z,132.35
2022-09-18T05:52:14.115Z,114.10
2022-09-18T05:54:41.820Z,113.82
2022-09-18T05:57:10.182Z,108.40
2022-09-18T05:59:37.558Z,104.88
2022-09-18T06:02:06.310Z,105.43
2022-09-18T06:04:53.981Z,109.28
2022-09-18T06:07:21.388Z,102.50
2022-09-18T06:09:48.771Z,103.28
2022-09-18T06:12:16.161Z,103.18
2022-09-18T06:14:44.229Z,97.60
2022-09-18T06:17:11.563Z,95.80
2022-09-18T06:19:38.885Z,95.15
2022-09-18T06:22:06.284Z,98.30
2022-09-18T06:24:34.794Z,97.30
2022-09-18T06:27:07.426Z,93.13
2022-09-18T06:29:35.179Z,90.70
2022-09-18T06:32:09.337Z,92.80
2022-09-18T06:34:38.924Z,97.72
2022-09-18T06:37:12.378Z,93.22
2022-09-18T06:40:07.939Z,93.45
2022-09-18T06:42:57.980Z,91.22
2022-09-18T06:45:44.336Z,93.32
2022-09-18T06:48:11.748Z,88.38
2022-09-18T06:50:39.260Z,87.63
2022-09-18T06:53:12.427Z,88.07
2022-09-18T06:55:51.126Z,89.20
2022-09-18T06:58:21.654Z,89.88
2022-09-18T07:00:52.474Z,89.30
2022-09-18T07:03:28.438Z,89.15
2022-09-18T07:06:13.616Z,87.43
2022-09-18T07:08:47.506Z,89.97
2022-09-18T07:11:26.423Z,88.57
2022-09-18T07:13:54.384Z,94.55
2022-09-18T07:16:21.699Z,87.97
2022-09-18T07:18:49.464Z,87.57
2022-09-18T07:21:19.769Z,89.82
2022-09-18T07:23:47.053Z,91.45
2022-09-18T07:26:14.531Z,91.90
2022-09-18T07:28:42.164Z,90.97
2022-09-18T07:31:34.777Z,93.47
2022-09-18T07:36:35.881Z,93.53
2022-09-18T07:39:04.102Z,219.47
2022-09-18T07:41:41.244Z,161.30
2022-09-18T07:44:08.729Z,135.32
2022-09-18T07:46:36.108Z,92.22
2022-09-18T07:49:05.465Z,96.00
2022-09-18T07:51:32.743Z,93.57
2022-09-18T07:54:00.417Z,92.38
2022-09-18T07:56:54.084Z,94.32
2022-09-18T07:59:24.587Z,93.85
2022-09-18T08:01:58.720Z,93.65
2022-09-18T08:04:28.355Z,91.47
2022-09-18T08:07:17.262Z,97.05
2022-09-18T08:10:17.003Z,99.00
2022-09-18T08:12:54.529Z,104.25
2022-09-18T08:15:24.669Z,103.30
2022-09-18T08:18:12.272Z,100.50
2022-09-18T08:20:57.804Z,245.40
2022-09-18T08:26:04.773Z,122.13
2022-09-18T08:28:32.989Z,124.88
2022-09-18T08:31:02.319Z,152.52
2022-09-18T08:33:29.739Z,196.23
2022-09-18T08:35:57.408Z,193.15
2022-09-18T08:38:36.522Z,197.82
2022-09-18T08:41:38.445Z,202.98
2022-09-18T08:44:24.009Z,227.25
2022-09-18T08:47:02.323Z,234.93
2022-09-18T08:49:39.468Z,205.05
2022-09-18T08:52:15.114Z,147.32
2022-09-18T08:55:01.184Z,130.48
2022-09-18T08:57:59.327Z,121.82
2022-09-18T09:00:42.015Z,108.00
2022-09-18T09:03:40.800Z,111.72
2022-09-18T09:06:23.837Z,101.97
2022-09-18T09:09:00.847Z,120.00
2022-09-18T09:11:29.981Z,150.40
2022-09-18T09:14:11.045Z,109.65
2022-09-18T09:17:07.246Z,108.97
2022-09-18T09:19:37.439Z,114.88
2022-09-18T09:22:19.154Z,112.50
2022-09-18T09:25:07.752Z,123.75
2022-09-18T09:28:16.341Z,118.70
2022-09-18T09:31:07.866Z,98.35
2022-09-18T09:33:57.983Z,95.80
2022-09-18T09:36:49.999Z,94.60
2022-09-18T09:39:39.691Z,97.63
2022-09-18T09:42:23.189Z,93.00
2022-09-18T09:45:15.526Z,96.18
2022-09-18T09:48:04.811Z,94.75
2022-09-18T09:50:51.553Z,94.82
2022-09-18T09:53:20.126Z,94.10
2022-09-18T09:56:08.959Z,105.32
2022-09-18T09:58:54.591Z,99.30
2022-09-18T10:01:59.663Z,102.93
2022-09-18T10:07:51.993Z,95.85
2022-09-18T10:10:31.359Z,93.85
2022-09-18T10:13:06.315Z,91.70
2022-09-18T10:15:41.795Z,97.03
2022-09-18T10:18:23.822Z,90.15
2022-09-18T10:20:57.857Z,94.43
2022-09-18T10:23:34.210Z,90.60
2022-09-18T10:26:04.039Z,90.65
2022-09-18T10:28:33.430Z,89.20
2022-09-18T10:31:05.520Z,91.00
2022-09-18T10:33:47.899Z,91.78
2022-09-18T10:36:44.125Z,94.22
2022-09-18T10:39:31.594Z,95.63
2022-09-18T10:42:07.208Z,91.35
2022-09-18T10:44:40.896Z,90.93
2022-09-18T10:47:18.632Z,91.55
2022-09-18T10:50:12.151Z,91.78
2022-09-18T10:52:49.772Z,91.22
2022-09-18T10:55:51.512Z,94.63
2022-09-18T10:58:29.680Z,91.22
2022-09-18T11:01:05.773Z,90.93
2022-09-18T11:03:41.685Z,89.10
2022-09-18T11:06:26.304Z,92.25
2022-09-18T11:08:59.693Z,92.60
2022-09-18T11:11:31.211Z,93.45
2022-09-18T11:14:16.116Z,91.85
2022-09-18T11:17:01.021Z,108.28
2022-09-18T11:19:40.628Z,171.50
2022-09-18T11:22:44.457Z,282.73
2022-09-18T11:25:32.477Z,350.40
2022-09-18T11:28:31.463Z,332.35
2022-09-18T11:31:06.840Z,263.80
2022-09-18T11:33:44.023Z,308.25
2022-09-18T11:36:14.750Z,282.08
2022-09-18T11:38:45.298Z,282.42
2022-09-18T11:41:21.921Z,353.80
2022-09-18T11:44:11.322Z,346.52
2022-09-18T11:46:41.579Z,280.25
2022-09-18T11:49:22.113Z,284.05
2022-09-18T11:52:14.274Z,294.67
2022-09-18T11:54:57.227Z,295.98
2022-09-18T11:57:45.508Z,306.95
2022-09-18T12:00:22.590Z,301.83
2022-09-18T12:03:06.911Z,284.47
2022-09-18T12:06:04.468Z,319.60
2022-09-18T12:11:47.819Z,382.35
2022-09-18T12:14:25.803Z,409.55
2022-09-18T12:17:31.821Z,372.77
2022-09-18T12:20:09.517Z,313.83
2022-09-18T12:22:57.461Z,264.23
2022-09-18T12:25:43.443Z,232.15
2022-09-18T12:28:35.351Z,167.10
2022-09-18T12:31:19.685Z,206.73
2022-09-18T12:34:31.043Z,143.88
2022-09-18T12:37:05.665Z,220.25
2022-09-18T12:40:14.259Z,264.10
2022-09-18T12:43:11.165Z,295.45
2022-09-18T12:45:38.580Z,318.02
2022-09-18T12:48:36.441Z,340.48
2022-09-18T12:51:51.281Z,370.48
2022-09-18T12:54:35.978Z,401.10
2022-09-18T12:57:10.260Z,424.25
2022-09-18T12:59:52.553Z,415.10
2022-09-18T13:02:24.824Z,439.75
2022-09-18T13:05:01.817Z,454.15
2022-09-18T13:07:35.416Z,455.55
2022-09-18T13:10:26.349Z,470.58
2022-09-18T13:13:23.059Z,394.98
2022-09-18T13:15:55.270Z,358.55
2022-09-18T13:18:29.081Z,336.23
2022-09-18T13:20:58.677Z,309.25
2022-09-18T13:23:35.246Z,324.58
2022-09-18T13:26:05.771Z,299.10
2022-09-18T13:28:33.675Z,238.75
2022-09-18T13:31:34.992Z,175.20
2022-09-18T13:34:06.852Z,273.58
2022-09-18T13:36:36.855Z,313.42
2022-09-18T13:39:17.101Z,328.40
2022-09-18T13:41:49.167Z,326.58
2022-09-18T13:44:19.486Z,313.67
2022-09-18T13:46:48.088Z,263.00
2022-09-18T13:49:35.838Z,306.65
2022-09-18T13:52:36.234Z,269.15
2022-09-18T13:55:16.529Z,176.90
2022-09-18T13:57:44.986Z,169.02
2022-09-18T14:00:21.237Z,105.20
2022-09-18T14:03:07.836Z,102.95
2022-09-18T14:05:40.573Z,93.90
2022-09-18T14:08:23.349Z,96.75
2022-09-18T14:11:13.716Z,98.27
2022-09-18T14:13:51.511Z,94.22
2022-09-18T14:16:22.542Z,63.88
2022-09-18T14:18:49.895Z,94.85
2022-09-18T14:21:40.256Z,92.80
2022-09-18T14:24:44.988Z,118.03
2022-09-18T14:27:43.316Z,120.55
2022-09-18T14:30:21.214Z,118.30
2022-09-18T14:33:19.029Z,102.97
2022-09-18T14:36:02.907Z,231.57
2022-09-18T14:41:06.861Z,138.30
2022-09-18T14:43:34.387Z,125.03
2022-09-18T14:46:01.964Z,107.68
2022-09-18T14:48:38.192Z,103.55
2022-09-18T14:51:15.759Z,106.68
2022-09-18T14:53:45.895Z,103.75
2022-09-18T14:56:20.754Z,100.50
2022-09-18T14:58:50.738Z,97.30
2022-09-18T15:01:23.853Z,98.75
2022-09-18T15:03:53.584Z,98.97
2022-09-18T15:06:48.364Z,95.32
2022-09-18T15:09:23.737Z,96.72
2022-09-18T15:12:06.738Z,101.80
2022-09-18T15:14:45.430Z,94.63
2022-09-18T15:17:22.089Z,103.90
2022-09-18T15:20:10.073Z,102.47
2022-09-18T15:22:37.519Z,94.80
2022-09-18T15:25:11.521Z,92.65
2022-09-18T15:27:40.605Z,97.55
2022-09-18T15:30:16.775Z,100.60
2022-09-18T15:32:50.110Z,101.05
2022-09-18T15:35:34.653Z,107.72
2022-09-18T15:38:06.166Z,96.25
2022-09-18T15:40:40.202Z,100.80
2022-09-18T15:43:30.567Z,89.75
2022-09-18T15:46:09.376Z,98.00
2022-09-18T15:48:40.994Z,93.32
2022-09-18T15:51:17.306Z,95.25
2022-09-18T15:54:14.819Z,96.95
2022-09-18T15:56:56.772Z,92.25
2022-09-18T15:59:31.834Z,92.57
2022-09-18T16:02:00.696Z,92.55
2022-09-18T16:04:33.165Z,90.50
2022-09-18T16:07:17.354Z,70.90
2022-09-18T16:09:49.539Z,92.05
2022-09-18T16:12:22.831Z,91.10
2022-09-18T16:15:00.571Z,62.40
2022-09-18T16:17:36.893Z,91.18
2022-09-18T16:20:28.523Z,87.55
2022-09-18T16:23:21.322Z,92.85
2022-09-18T16:26:21.621Z,88.78
2022-09-18T16:29:01.634Z,88.60
2022-09-18T16:31:32.305Z,87.57
2022-09-18T16:34:02.471Z,87.85
2022-09-18T16:36:34.304Z,89.50
2022-09-18T16:39:08.293Z,94.80
2022-09-18T16:41:36.481Z,92.78
2022-09-18T16:44:05.784Z,94.60
2022-09-18T16:46:42.428Z,92.90
2022-09-18T16:49:16.243Z,95.20
2022-09-18T16:51:43.747Z,94.38
2022-09-18T16:54:11.191Z,95.97
2022-09-18T16:56:45.832Z,90.95
2022-09-18T16:59:13.880Z,93.47
2022-09-18T17:02:02.497Z,90.25
2022-09-18T17:04:29.561Z,91.75
2022-09-18T17:06:57.112Z,93.60
2022-09-18T17:09:25.056Z,89.78
2022-09-18T17:11:53.926Z,92.53
2022-09-18T17:14:21.991Z,89.18
2022-09-18T17:16:49.424Z,93.75
2022-09-18T17:19:17.046Z,97.63
2022-09-18T17:21:44.409Z,89.97
2022-09-18T17:24:12.166Z,103.85
2022-09-18T17:26:41.238Z,89.20
2022-09-18T17:29:11.465Z,89.78
2022-09-18T17:31:38.967Z,97.40
2022-09-18T17:34:06.424Z,100.93
2022-09-18T17:36:38.064Z,90.28
2022-09-18T17:39:06.711Z,91.35
2022-09-18T17:41:34.229Z,86.28
2022-09-18T17:44:01.831Z,89.78
2022-09-18T17:46:29.084Z,88.38
2022-09-18T17:48:59.751Z,90.07
2022-09-18T17:51:29.096Z,93.18
2022-09-18T17:54:04.967Z,88.38
2022-09-18T17:56:33.911Z,86.43
2022-09-18T17:59:05.634Z,87.82
2022-09-18T18:01:37.672Z,88.07
2022-09-18T18:04:06.520Z,90.85
2022-09-18T18:06:34.727Z,87.47
2022-09-18T18:09:02.162Z,88.40
2022-09-18T18:11:29.811Z,90.85
2022-09-18T18:13:57.111Z,86.43
2022-09-18T18:16:30.765Z,87.45
2022-09-18T18:19:04.807Z,88.10
2022-09-18T18:21:34.808Z,84.30
2022-09-18T18:24:06.971Z,88.32
2022-09-18T18:26:34.977Z,85.32
2022-09-18T18:29:05.920Z,87.43
2022-09-18T18:31:33.672Z,84.95
2022-09-18T18:34:01.058Z,86.25
2022-09-18T18:36:30.270Z,88.95
2022-09-18T18:39:00.063Z,88.57
2022-09-18T18:41:29.954Z,84.55
2022-09-18T18:44:00.101Z,63.25
2022-09-18T18:46:29.511Z,87.90
2022-09-18T18:49:03.976Z,86.80
2022-09-18T18:51:35.467Z,85.85
2022-09-18T18:54:04.299Z,86.88
2022-09-18T18:56:34.251Z,85.13
2022-09-18T18:59:03.779Z,85.13
2022-09-18T19:01:32.226Z,86.07
2022-09-18T19:04:08.439Z,84.32
2022-09-18T19:06:39.035Z,85.63
2022-09-18T19:09:20.268Z,82.60
2022-09-18T19:11:50.153Z,62.25
2022-09-18T19:14:21.429Z,84.80
2022-09-18T19:16:51.380Z,84.32
2022-09-18T19:19:20.528Z,85.15
2022-09-18T19:21:48.039Z,82.63
2022-09-18T19:24:18.702Z,58.58
2022-09-18T19:26:47.167Z,83.38
2022-09-18T19:29:17.463Z,85.28
2022-09-18T19:31:46.691Z,84.43
2022-09-18T19:34:16.529Z,82.57
2022-09-18T19:36:47.297Z,83.05
2022-09-18T19:39:15.334Z,10.10
2022-09-18T19:41:51.498Z,39.33
2022-09-18T19:44:31.493Z,9.48
2022-09-18T19:47:02.451Z,9.13
2022-09-18T19:49:33.772Z,7.95
2022-09-18T19:52:02.272Z,6.22
2022-09-18T19:54:30.042Z,8.63
2022-09-18T19:56:59.160Z,7.30
2022-09-18T19:59:26.512Z,8.93
2022-09-18T20:01:54.853Z,8.77
2022-09-18T20:04:22.167Z,7.95
2022-09-18T20:06:49.852Z,5.63
2022-09-18T20:09:17.176Z,4.90
2022-09-18T20:11:48.127Z,5.40
2022-09-18T20:14:16.316Z,4.82
2022-09-18T20:16:43.646Z,6.40
2022-09-18T20:19:11.158Z,6.03
2022-09-18T20:21:38.468Z,5.20
2022-09-18T20:24:06.269Z,3.95
2022-09-18T20:26:33.706Z,4.55
2022-09-18T20:29:01.339Z,4.90
2022-09-18T20:31:29.046Z,5.30
2022-09-18T20:33:57.984Z,4.13
2022-09-18T20:36:26.447Z,4.18
2022-09-18T20:38:58.164Z,4.85
2022-09-18T20:41:29.817Z,4.32
2022-09-18T20:44:00.310Z,3.30
2022-09-18T20:46:27.753Z,3.90
2022-09-18T20:48:55.274Z,76.95
2022-09-18T20:51:25.933Z,4.65
2022-09-18T20:53:57.605Z,3.80
2022-09-18T20:56:27.590Z,4.63
2022-09-18T20:58:55.291Z,5.75
2022-09-18T21:01:25.174Z,4.57
2022-09-18T21:03:58.144Z,5.15
2022-09-18T21:06:28.978Z,4.82
2022-09-18T21:08:56.671Z,4.72
2022-09-18T21:11:25.691Z,10.65
2022-09-18T21:13:54.961Z,5.22
2022-09-18T21:16:23.501Z,5.03
2022-09-18T21:18:53.643Z,4.85
2022-09-18T21:21:21.505Z,5.10
2022-09-18T21:23:56.641Z,5.82
2022-09-18T21:26:27.685Z,5.07
2022-09-18T21:28:58.369Z,5.55
2022-09-18T21:31:26.632Z,6.80
2022-09-18T21:33:54.182Z,5.88
2022-09-18T21:36:23.529Z,4.97
2022-09-18T21:38:51.665Z,6.93
2022-09-18T21:41:21.388Z,5.03
2022-09-18T21:43:50.713Z,4.90
2022-09-18T21:46:20.045Z,4.30
2022-09-18T21:48:49.183Z,3.55
2022-09-18T21:51:17.819Z,3.78
2022-09-18T21:53:45.635Z,4.25
2022-09-18T21:56:16.083Z,3.92
2022-09-18T21:58:47.534Z,4.85
2022-09-18T22:01:19.050Z,4.35
2022-09-18T22:03:56.193Z,4.57
2022-09-18T22:06:26.254Z,3.90
2022-09-18T22:08:56.502Z,4.15
2022-09-18T22:11:29.218Z,4.18
2022-09-18T22:13:59.802Z,3.90
2022-09-18T22:16:31.339Z,3.53
2022-09-18T22:18:59.555Z,3.17
2022-09-18T22:21:29.283Z,3.95
2022-09-18T22:23:59.384Z,3.45
2022-09-18T22:26:28.640Z,3.72
2022-09-18T22:28:57.136Z,3.78
2022-09-18T22:31:25.654Z,3.83
2022-09-18T22:33:57.803Z,3.83
2022-09-18T22:36:26.389Z,4.25
2022-09-18T22:38:54.493Z,3.65
2022-09-18T22:41:22.532Z,3.60
2022-09-18T22:43:55.281Z,4.70
2022-09-18T22:46:24.980Z,3.80
2022-09-18T22:48:52.733Z,4.18
2022-09-18T22:51:24.452Z,3.63
2022-09-18T22:53:55.065Z,4.28
2022-09-18T22:56:24.678Z,4.38
2022-09-18T22:58:52.890Z,4.28
2022-09-18T23:01:27.988Z,4.43
2022-09-18T23:03:57.059Z,4.15
2022-09-18T23:06:26.317Z,4.03
2022-09-18T23:08:56.340Z,4.45
2022-09-18T23:11:26.726Z,4.50
2022-09-18T23:14:00.095Z,5.00
2022-09-18T23:19:10.186Z,4.65
2022-09-18T23:21:39.354Z,5.60
2022-09-18T23:24:09.259Z,6.78
2022-09-18T23:26:42.032Z,7.82
2022-09-18T23:29:13.071Z,6.20
2022-09-18T23:31:42.636Z,4.93
2022-09-18T23:34:15.155Z,4.60
2022-09-18T23:36:44.924Z,4.60
2022-09-18T23:39:15.666Z,3.97
2022-09-18T23:41:43.451Z,5.45
2022-09-18T23:44:13.517Z,6.00
2022-09-18T23:46:42.015Z,6.03
2022-09-18T23:49:12.362Z,4.13
2022-09-18T23:51:42.485Z,3.80
2022-09-18T23:54:16.926Z,5.50
2022-09-18T23:56:45.266Z,3.85
2022-09-18T23:59:13.597Z,6.07
